Terminal Aerodrome Forecast
Issued by NWS Sterling, VA

Current Version | Previous Version | Text Only | Print | Product List | Glossary Off
Versions: 1 2 3 4 5 6 7 8 9 10 11 12 13 14 15 16 17 18 19 20 21 22 23 24

000
FTUS41 KLWX 131100
TAFIAD
TAF
KIAD 131120Z 1312/1418 VRB03KT P6SM SCT025 OVC040
     FM131500 00000KT 5SM -SHRA OVC025
     FM131800 32005KT P6SM OVC015
     FM132100 32005KT P6SM OVC050
     FM140300 33008KT P6SM FEW250=

USA.gov is the U.S. government's official web portal to all federal, state and local government web resources and services.